Time;durP1;ratioP1;P1;durP2;ratioP2;P2;SDS_P1;SDS_P2;PMS_P1;PMS_P2;Temp;Humidity;BMP_temperature;BMP_pressure;BME280_temperature;BME280_humidity;BME280_pressure;Samples;Min_cycle;Max_cycle;Signal;HPM_P1;HPM_P2
2023/09/21 00:00:36;;;;;;;10.68;7.80;;;;;;;18.03;79.03;95084.09;5075713;28;20650;-66
2023/09/21 00:03:06;;;;;;;10.73;7.78;;;;;;;18.02;79.44;95093.69;5076197;28;20228;-66
2023/09/21 00:05:35;;;;;;;11.73;8.57;;;;;;;17.99;79.07;95091.69;5076501;28;20266;-66
2023/09/21 00:08:05;;;;;;;13.90;8.40;;;;;;;18.02;78.97;95088.09;5076963;28;20189;-66
2023/09/21 00:10:33;;;;;;;10.77;8.82;;;;;;;17.95;79.02;95098.47;5092821;28;20248;-66
2023/09/21 00:13:03;;;;;;;8.95;8.05;;;;;;;17.93;79.62;95086.91;5076375;28;20601;-66
2023/09/21 00:15:34;;;;;;;8.77;7.93;;;;;;;18.02;79.71;95093.69;5075478;28;20258;-66
2023/09/21 00:18:05;;;;;;;9.38;8.43;;;;;;;18.06;79.76;95098.47;5075923;28;20277;-66
2023/09/21 00:20:36;;;;;;;10.80;8.88;;;;;;;18.08;79.79;95096.84;5075953;28;20197;-66
2023/09/21 00:23:06;;;;;;;11.93;8.57;;;;;;;18.14;80.42;95100.03;5076191;28;20242;-66
2023/09/21 00:25:34;;;;;;;10.77;8.52;;;;;;;18.21;80.01;95103.63;5076091;28;20213;-66
2023/09/21 00:28:07;;;;;;;9.98;8.30;;;;;;;18.27;79.55;95110.41;5075609;28;20193;-66
2023/09/21 00:30:36;;;;;;;10.80;8.40;;;;;;;18.32;79.56;95117.56;5116596;28;20318;-66
2023/09/21 00:33:08;;;;;;;11.70;8.90;;;;;;;18.36;79.56;95117.56;5116690;28;20198;-66
2023/09/21 00:35:39;;;;;;;10.23;8.10;;;;;;;18.40;79.47;95123.91;5099060;28;20199;-66
2023/09/21 00:38:08;;;;;;;9.48;8.30;;;;;;;18.44;79.40;95122.72;5116831;28;20202;-66
2023/09/21 00:40:39;;;;;;;10.15;9.05;;;;;;;18.45;78.86;95129.13;5099116;28;20214;-66
2023/09/21 00:43:09;;;;;;;8.65;7.90;;;;;;;18.47;79.17;95135.06;5099081;28;20234;-66
2023/09/21 00:45:40;;;;;;;10.73;8.02;;;;;;;18.47;78.91;95129.50;5116501;28;20635;-66
2023/09/21 00:48:11;;;;;;;8.95;7.82;;;;;;;18.48;79.11;95125.50;5116439;28;20184;-66
2023/09/21 00:50:41;;;;;;;10.90;8.15;;;;;;;18.47;79.25;95133.06;5116448;28;20275;-66
2023/09/21 00:53:15;;;;;;;11.10;7.72;;;;;;;18.48;79.25;95125.50;5116589;28;20533;-66
2023/09/21 00:55:45;;;;;;;14.75;8.70;;;;;;;18.47;80.34;95118.31;5116170;28;20177;-66
2023/09/21 00:58:14;;;;;;;11.88;8.13;;;;;;;18.46;80.57;95108.34;5098854;28;20210;-66
2023/09/21 01:00:44;;;;;;;10.25;8.68;;;;;;;18.46;81.21;95099.97;5098547;28;20204;-66
2023/09/21 01:03:14;;;;;;;9.63;8.27;;;;;;;18.39;82.07;95103.59;5116072;28;20233;-66
2023/09/21 01:05:41;;;;;;;10.88;8.30;;;;;;;18.35;82.18;95099.22;5116194;28;20512;-66
2023/09/21 01:08:18;;;;;;;9.43;7.55;;;;;;;18.32;82.26;95100.81;5116358;28;20186;-66
2023/09/21 01:10:49;;;;;;;9.95;7.32;;;;;;;18.26;82.48;95108.81;5098364;28;20214;-66
2023/09/21 01:13:16;;;;;;;9.65;8.27;;;;;;;18.23;83.36;95094.84;5115894;28;20195;-66
2023/09/21 01:15:46;;;;;;;8.40;7.13;;;;;;;18.23;83.67;95098.44;5115608;28;20302;-66
2023/09/21 01:18:16;;;;;;;9.50;7.80;;;;;;;18.27;83.80;95084.47;5116133;28;20194;-66
2023/09/21 01:20:45;;;;;;;10.07;8.23;;;;;;;18.30;83.88;95092.06;5115983;28;20258;-66
2023/09/21 01:23:18;;;;;;;9.93;7.72;;;;;;;18.28;84.35;95086.84;5116000;28;20283;-66
2023/09/21 01:25:50;;;;;;;11.60;8.05;;;;;;;18.19;84.17;95080.91;5116223;28;20216;-66
2023/09/21 01:28:20;;;;;;;10.38;8.70;;;;;;;18.14;84.34;95074.91;5115668;28;20184;-66
2023/09/21 01:30:48;;;;;;;10.60;8.00;;;;;;;18.15;84.92;95079.31;5097953;28;20200;-66
2023/09/21 01:33:17;;;;;;;9.82;7.88;;;;;;;18.18;85.41;95073.72;5115487;28;20256;-66
2023/09/21 01:35:46;;;;;;;10.90;9.15;;;;;;;18.22;84.84;95074.50;5115823;28;20195;-66
2023/09/21 01:38:14;;;;;;;12.30;8.88;;;;;;;18.19;84.93;95074.50;5115826;28;20190;-66
2023/09/21 01:40:43;;;;;;;11.15;8.68;;;;;;;18.11;84.91;95070.13;5115733;28;20184;-66
2023/09/21 01:43:16;;;;;;;11.18;7.97;;;;;;;18.04;85.02;95065.38;5097928;28;20195;-66
2023/09/21 01:45:48;;;;;;;9.27;8.30;;;;;;;18.08;85.34;95054.97;5115859;28;20269;-66
2023/09/21 01:48:18;;;;;;;9.40;8.15;;;;;;;18.07;85.29;95056.19;5115333;28;20187;-66
2023/09/21 01:50:48;;;;;;;13.93;8.60;;;;;;;18.06;84.70;95057.41;5097521;28;20196;-66
2023/09/21 01:53:17;;;;;;;10.30;8.43;;;;;;;18.01;84.77;95061.41;5115401;28;20184;-66
2023/09/21 01:55:47;;;;;;;11.63;8.88;;;;;;;18.04;84.79;95046.63;5098015;28;20233;-66
2023/09/21 01:58:18;;;;;;;12.02;8.95;;;;;;;18.10;85.17;95046.22;5115757;28;20249;-67
2023/09/21 02:00:48;;;;;;;10.73;8.48;;;;;;;18.10;85.05;95035.84;5097406;28;20196;-66
2023/09/21 02:03:18;;;;;;;11.55;9.00;;;;;;;18.10;85.09;95032.28;5115601;28;20203;-66
2023/09/21 02:05:47;;;;;;;12.52;8.43;;;;;;;18.07;85.20;95028.28;5115437;28;20199;-66
2023/09/21 02:08:17;;;;;;;8.65;7.90;;;;;;;18.05;85.34;95025.13;5115195;28;20608;-66
2023/09/21 02:10:49;;;;;;;12.35;8.32;;;;;;;18.06;85.63;95018.31;5097568;28;20234;-66
2023/09/21 02:13:20;;;;;;;9.43;8.48;;;;;;;18.08;85.94;95018.69;5115456;28;20215;-66
2023/09/21 02:15:51;;;;;;;9.80;8.80;;;;;;;18.11;86.47;95017.91;5115611;28;20204;-66
2023/09/21 02:18:19;;;;;;;9.80;8.40;;;;;;;18.14;86.40;95007.94;5097340;28;20206;-66
2023/09/21 02:20:51;;;;;;;11.75;8.85;;;;;;;18.15;86.33;95015.91;5097562;28;20196;-66
2023/09/21 02:23:20;;;;;;;10.38;8.68;;;;;;;18.17;86.26;95019.09;5097805;28;20202;-66
2023/09/21 02:25:47;;;;;;;9.60;8.52;;;;;;;18.20;86.55;95017.50;5115643;28;20215;-67
2023/09/21 02:28:15;;;;;;;11.60;8.50;;;;;;;18.22;86.51;95029.03;5097193;28;20249;-67
2023/09/21 02:30:47;;;;;;;8.82;7.95;;;;;;;18.22;86.37;95024.25;5097438;28;20207;-67
2023/09/21 02:33:17;;;;;;;9.77;8.88;;;;;;;18.23;86.27;95027.88;5097527;28;20204;-67
2023/09/21 02:35:46;;;;;;;11.18;8.98;;;;;;;18.21;85.91;95030.25;5097641;28;20192;-67
2023/09/21 02:38:20;;;;;;;11.23;9.25;;;;;;;18.14;86.38;95031.06;5115018;28;20188;-67
2023/09/21 02:40:48;;;;;;;9.55;8.43;;;;;;;18.10;86.73;95026.69;5115156;28;20190;-67
2023/09/21 02:43:16;;;;;;;9.82;8.73;;;;;;;18.03;86.84;95030.28;5115210;28;20203;-67
2023/09/21 02:45:46;;;;;;;10.10;9.10;;;;;;;18.02;87.09;95025.91;5118130;28;20198;-66
2023/09/21 02:48:15;;;;;;;12.18;7.88;;;;;;;18.05;86.69;95025.13;5119069;28;20211;-67
2023/09/21 02:50:44;;;;;;;10.43;8.55;;;;;;;18.08;86.06;95026.28;5100959;28;20556;-67
2023/09/21 02:53:15;;;;;;;10.15;8.40;;;;;;;18.09;85.47;95028.69;5118934;28;20180;-67
2023/09/21 02:55:43;;;;;;;11.63;8.63;;;;;;;18.10;85.33;95029.47;5101337;28;20275;-66
2023/09/21 02:58:14;;;;;;;11.50;9.00;;;;;;;18.13;85.68;95034.25;5118506;28;20566;-67
2023/09/21 03:00:44;;;;;;;10.80;8.73;;;;;;;18.10;85.91;95030.28;5118721;28;20199;-67
2023/09/21 03:03:19;;;;;;;10.93;8.98;;;;;;;18.07;86.21;95036.66;5118355;28;20195;-67
2023/09/21 03:05:48;;;;;;;9.60;8.60;;;;;;;18.04;86.65;95035.47;5100779;28;20179;-67
2023/09/21 03:08:17;;;;;;;10.65;8.93;;;;;;;18.01;86.32;95032.66;5118313;28;20184;-67
2023/09/21 03:10:47;;;;;;;11.63;8.90;;;;;;;17.99;87.02;95049.81;5118493;28;20187;-67
2023/09/21 03:13:17;;;;;;;11.48;8.85;;;;;;;18.01;87.34;95043.84;5118601;28;20194;-67
2023/09/21 03:15:47;;;;;;;13.35;8.85;;;;;;;18.03;87.17;95044.25;5100597;28;20196;-67
2023/09/21 03:18:18;;;;;;;10.05;8.48;;;;;;;18.02;86.90;95057.41;5118103;28;20252;-67
2023/09/21 03:20:48;;;;;;;9.15;8.18;;;;;;;18.02;87.11;95053.81;5118077;28;20183;-67
2023/09/21 03:23:16;;;;;;;12.40;8.50;;;;;;;18.00;86.64;95061.78;5118548;28;20194;-67
2023/09/21 03:25:47;;;;;;;9.30;8.32;;;;;;;18.01;86.58;95053.03;5100356;28;20207;-67
2023/09/21 03:28:16;;;;;;;10.68;8.75;;;;;;;18.02;86.55;95045.44;5118137;28;20184;-67
2023/09/21 03:30:44;;;;;;;11.95;9.45;;;;;;;18.03;86.07;95047.03;5118250;28;20519;-66
2023/09/21 03:33:15;;;;;;;10.15;9.02;;;;;;;18.03;86.44;95045.03;5117848;28;20192;-66
2023/09/21 03:35:45;;;;;;;12.18;9.45;;;;;;;18.04;86.51;95043.03;5118075;28;20181;-66
2023/09/21 03:38:14;;;;;;;12.82;9.63;;;;;;;18.02;86.75;95049.03;5100529;28;20707;-66
2023/09/21 03:40:44;;;;;;;11.63;9.00;;;;;;;18.00;86.95;95050.63;5117647;28;20282;-66
2023/09/21 03:43:13;;;;;;;10.90;9.43;;;;;;;18.01;87.09;95041.03;5100278;28;20198;-66
2023/09/21 03:45:42;;;;;;;10.27;8.48;;;;;;;18.00;87.21;95051.41;5117596;28;20206;-66
2023/09/21 03:48:11;;;;;;;10.43;9.40;;;;;;;17.98;87.17;95045.44;5117439;28;20208;-66
2023/09/21 03:50:39;;;;;;;10.45;9.35;;;;;;;17.97;86.79;95048.63;5117658;28;20231;-66
2023/09/21 03:53:10;;;;;;;13.93;9.38;;;;;;;17.93;86.64;95047.84;5117454;28;20188;-66
2023/09/21 03:55:38;;;;;;;10.20;8.75;;;;;;;17.95;86.59;95040.66;5117286;28;20218;-66
2023/09/21 03:58:07;;;;;;;10.20;8.98;;;;;;;17.96;86.47;95039.47;5117750;28;20172;-66
2023/09/21 04:00:37;;;;;;;11.35;8.93;;;;;;;17.94;86.24;95036.28;5117411;28;20191;-66
2023/09/21 04:03:08;;;;;;;10.70;9.18;;;;;;;17.92;85.94;95033.09;5099582;28;20199;-66
2023/09/21 04:05:37;;;;;;;9.93;8.88;;;;;;;17.88;85.56;95042.69;5117499;28;20252;-66
2023/09/21 04:08:06;;;;;;;9.55;8.52;;;;;;;17.86;85.99;95042.28;5099474;28;20216;-67
2023/09/21 04:10:37;;;;;;;10.68;8.77;;;;;;;17.88;85.77;95042.69;5099539;28;20233;-66
2023/09/21 04:13:05;;;;;;;9.45;8.45;;;;;;;17.87;85.94;95043.88;5082444;28;20203;-66
2023/09/21 04:15:33;;;;;;;10.38;8.98;;;;;;;17.85;86.17;95049.06;5099658;28;20188;-66
2023/09/21 04:18:02;;;;;;;13.40;9.60;;;;;;;17.83;86.26;95049.47;5117306;28;20184;-66
2023/09/21 04:20:31;;;;;;;11.48;9.02;;;;;;;17.85;86.16;95051.84;5117312;28;20241;-66
2023/09/21 04:23:01;;;;;;;12.70;9.77;;;;;;;17.87;86.30;95049.47;5117249;28;20203;-66
2023/09/21 04:25:29;;;;;;;10.38;9.15;;;;;;;17.87;86.42;95055.84;5116957;28;20233;-66
2023/09/21 04:27:57;;;;;;;13.07;10.18;;;;;;;17.83;86.35;95057.00;5099299;28;20216;-66
2023/09/21 04:30:24;;;;;;;11.50;9.98;;;;;;;17.80;86.60;95050.25;5095472;28;20304;-66
2023/09/21 04:32:53;;;;;;;11.90;10.20;;;;;;;17.82;87.00;95052.63;5095363;28;20203;-66
2023/09/21 04:35:21;;;;;;;10.10;9.00;;;;;;;17.81;86.62;95043.47;5095780;28;20200;-66
2023/09/21 04:37:51;;;;;;;13.32;10.30;;;;;;;17.82;86.54;95050.66;5095759;28;20209;-66
2023/09/21 04:40:22;;;;;;;10.50;9.50;;;;;;;17.83;86.81;95043.88;5096543;28;20196;-66
2023/09/21 04:42:50;;;;;;;10.85;9.23;;;;;;;17.84;86.93;95042.69;5096069;28;20184;-66
2023/09/21 04:45:19;;;;;;;11.55;10.25;;;;;;;17.84;87.00;95045.47;5113120;28;20218;-66
2023/09/21 04:47:49;;;;;;;11.57;10.20;;;;;;;17.87;87.65;95046.69;5096669;28;20269;-66
2023/09/21 04:50:19;;;;;;;10.63;9.60;;;;;;;17.93;87.03;95050.63;5096438;28;20200;-66
2023/09/21 04:52:48;;;;;;;12.80;10.15;;;;;;;17.95;87.33;95056.63;5095939;28;20184;-66
2023/09/21 04:55:17;;;;;;;11.43;9.80;;;;;;;17.95;87.02;95060.19;5095355;28;20200;-68
2023/09/21 04:57:46;;;;;;;11.07;9.75;;;;;;;17.96;86.61;95061.00;5095536;28;20530;-67
2023/09/21 05:00:15;;;;;;;15.05;9.65;;;;;;;17.96;85.98;95055.41;5096116;28;20180;-66
2023/09/21 05:02:48;;;;;;;10.35;9.35;;;;;;;17.96;86.26;95053.41;5096025;28;20184;-66
2023/09/21 05:05:17;;;;;;;13.40;10.48;;;;;;;17.94;86.03;95053.03;5094504;28;20214;-66
2023/09/21 05:07:44;;;;;;;12.63;10.30;;;;;;;17.96;86.32;95059.00;5094991;28;20205;-66
2023/09/21 05:10:12;;;;;;;12.18;10.30;;;;;;;17.98;86.12;95059.41;5094959;28;20213;-66
2023/09/21 05:12:41;;;;;;;12.75;10.52;;;;;;;18.02;86.11;95059.41;5095466;28;20200;-66
2023/09/21 05:15:14;;;;;;;13.05;9.85;;;;;;;18.01;86.29;95057.78;5095155;28;20204;-67
2023/09/21 05:17:48;;;;;;;11.70;10.05;;;;;;;18.03;85.97;95060.97;5096137;28;20185;-66
2023/09/21 05:20:16;;;;;;;10.85;9.80;;;;;;;18.05;86.12;95069.75;5094975;28;20208;-66
2023/09/21 05:22:44;;;;;;;12.23;10.88;;;;;;;18.06;86.54;95065.78;5095324;28;20269;-66
2023/09/21 05:25:12;;;;;;;14.52;11.05;;;;;;;18.06;86.41;95059.41;5095069;28;20188;-66
2023/09/21 05:27:42;;;;;;;11.43;10.25;;;;;;;18.03;86.10;95056.19;5094839;28;20208;-66
2023/09/21 05:30:11;;;;;;;12.85;10.32;;;;;;;18.06;86.08;95048.22;5111612;28;20238;-66
2023/09/21 05:32:39;;;;;;;12.02;9.43;;;;;;;18.08;85.62;95045.81;5115792;28;20180;-66
2023/09/21 05:35:10;;;;;;;14.23;10.55;;;;;;;18.11;85.95;95043.03;5115914;28;20266;-66
2023/09/21 05:37:41;;;;;;;12.32;10.15;;;;;;;18.15;86.11;95046.59;5114583;28;20200;-66
2023/09/21 05:40:12;;;;;;;14.85;10.60;;;;;;;18.18;86.20;95040.22;5115924;28;20198;-66
2023/09/21 05:42:41;;;;;;;14.05;10.55;;;;;;;18.21;85.89;95045.00;5115813;28;20587;-66
2023/09/21 05:45:10;;;;;;;14.55;11.00;;;;;;;18.24;86.12;95048.97;5116269;28;20193;-66
2023/09/21 05:47:36;;;;;;;13.68;11.75;;;;;;;18.26;86.49;95044.59;5096841;28;20219;-66
2023/09/21 05:50:07;;;;;;;13.57;11.15;;;;;;;18.30;86.60;95055.75;5080939;28;20211;-66
2023/09/21 05:52:40;;;;;;;13.23;10.98;;;;;;;18.32;86.41;95052.56;5114475;28;20204;-67
2023/09/21 05:55:11;;;;;;;12.93;11.63;;;;;;;18.35;86.16;95046.16;5115664;28;20202;-66
2023/09/21 05:57:40;;;;;;;13.38;10.93;;;;;;;18.35;85.78;95048.97;5097577;28;20199;-66
2023/09/21 06:00:09;;;;;;;16.58;11.60;;;;;;;18.35;85.84;95051.75;5097891;28;20199;-66
2023/09/21 06:02:37;;;;;;;14.43;11.35;;;;;;;18.35;85.24;95054.53;5097695;28;20198;-66
2023/09/21 06:05:06;;;;;;;13.70;11.00;;;;;;;18.36;85.29;95056.13;5115372;28;20195;-66
2023/09/21 06:07:34;;;;;;;15.60;10.95;;;;;;;18.39;85.04;95066.50;5097710;28;20306;-66
2023/09/21 06:10:06;;;;;;;15.15;10.48;;;;;;;18.40;84.97;95066.06;5097810;28;20212;-66
2023/09/21 06:12:34;;;;;;;12.38;10.38;;;;;;;18.41;84.49;95067.69;5097336;28;20203;-66
2023/09/21 06:15:05;;;;;;;15.75;10.98;;;;;;;18.44;84.38;95064.06;5115769;28;20184;-66
2023/09/21 06:17:35;;;;;;;10.13;8.95;;;;;;;18.49;84.19;95074.03;5097774;28;20195;-66
2023/09/21 06:20:03;;;;;;;11.10;9.90;;;;;;;18.52;84.29;95065.66;5100365;28;20199;-66
2023/09/21 06:22:31;;;;;;;12.15;9.75;;;;;;;18.58;84.56;95070.81;5101295;28;20201;-66
2023/09/21 06:24:59;;;;;;;15.10;9.63;;;;;;;18.62;84.01;95066.78;5119377;28;20264;-66
2023/09/21 06:27:30;;;;;;;12.80;9.77;;;;;;;18.68;84.10;95064.41;5101788;28;20215;-66
2023/09/21 06:29:58;;;;;;;12.93;11.68;;;;;;;18.65;83.34;95051.22;5098061;28;20243;-66
2023/09/21 06:32:25;;;;;;;12.40;10.98;;;;;;;18.59;82.93;95056.47;5098170;28;20257;-66
2023/09/21 06:34:55;;;;;;;15.50;10.88;;;;;;;18.58;82.95;95056.84;5097813;28;20208;-66
2023/09/21 06:37:23;;;;;;;16.10;11.32;;;;;;;18.59;83.27;95050.88;5098202;28;20203;-66
2023/09/21 06:39:51;;;;;;;11.50;10.50;;;;;;;18.64;83.19;95058.03;5115089;28;20588;-66
2023/09/21 06:42:20;;;;;;;13.73;11.00;;;;;;;18.64;83.24;95066.41;5098806;28;20190;-66
2023/09/21 06:44:54;;;;;;;14.65;10.55;;;;;;;18.67;83.46;95060.81;5098517;28;20188;-66
2023/09/21 06:47:26;;;;;;;14.05;11.38;;;;;;;18.69;83.47;95060.38;5097507;28;20222;-66
2023/09/21 06:49:55;;;;;;;13.80;11.35;;;;;;;18.66;82.56;95064.78;5098386;28;20196;-66
2023/09/21 06:52:23;;;;;;;13.05;11.10;;;;;;;18.64;82.62;95058.81;5097754;28;20203;-66
2023/09/21 06:54:52;;;;;;;15.35;10.90;;;;;;;18.66;82.45;95061.19;5097383;28;20200;-66
2023/09/21 06:57:23;;;;;;;14.63;10.88;;;;;;;18.66;81.99;95052.81;5098339;28;20181;-66
2023/09/21 06:59:53;;;;;;;13.90;11.32;;;;;;;18.69;81.92;95052.81;5097878;28;20200;-66
2023/09/21 07:02:22;;;;;;;15.90;11.48;;;;;;;18.73;81.48;95058.41;5114505;28;20203;-66
2023/09/21 07:04:50;;;;;;;14.23;11.38;;;;;;;18.74;81.16;95051.63;5097573;28;20192;-66
2023/09/21 07:07:19;;;;;;;12.32;11.07;;;;;;;18.81;81.54;95061.97;5097732;28;20220;-66
2023/09/21 07:09:47;;;;;;;12.02;10.43;;;;;;;18.85;81.49;95055.16;5097855;28;20194;-66
2023/09/21 07:12:16;;;;;;;15.90;12.23;;;;;;;18.94;81.75;95065.91;5114409;28;20200;-66
2023/09/21 07:14:45;;;;;;;15.10;11.70;;;;;;;19.05;81.38;95060.25;5114231;28;20199;-66
2023/09/21 07:17:18;;;;;;;14.93;12.30;;;;;;;19.14;81.30;95063.41;5097600;28;20200;-66
2023/09/21 07:19:46;;;;;;;13.50;12.10;;;;;;;19.21;81.25;95066.94;5097917;28;20191;-66
2023/09/21 07:22:16;;;;;;;15.45;12.13;;;;;;;19.29;80.33;95064.09;5097396;28;20238;-66
2023/09/21 07:24:47;;;;;;;16.33;12.65;;;;;;;19.34;79.44;95070.03;5097668;28;20253;-67
2023/09/21 07:27:16;;;;;;;18.33;13.73;;;;;;;19.39;79.23;95068.81;5097097;28;20204;-66
2023/09/21 07:29:44;;;;;;;18.92;14.43;;;;;;;19.37;79.06;95062.84;5096650;28;20228;-67
2023/09/21 07:32:12;;;;;;;17.05;13.15;;;;;;;19.41;79.28;95063.63;5096986;28;20191;-66
2023/09/21 07:34:42;;;;;;;19.05;11.88;;;;;;;19.45;79.55;95072.78;5113836;28;20569;-66
2023/09/21 07:37:12;;;;;;;19.98;13.43;;;;;;;19.51;79.20;95078.75;5113180;28;20624;-66
2023/09/21 07:39:41;;;;;;;14.10;12.45;;;;;;;19.54;77.62;95078.72;5097866;28;20185;-67
2023/09/21 07:42:10;;;;;;;19.20;12.75;;;;;;;19.55;76.65;95071.91;5097733;28;20291;-66
2023/09/21 07:44:44;;;;;;;18.40;12.95;;;;;;;19.58;77.42;95079.47;5096595;28;20200;-67
2023/09/21 07:47:16;;;;;;;13.82;11.35;;;;;;;19.63;77.13;95073.47;5096530;28;20189;-67
2023/09/21 07:49:45;;;;;;;13.45;12.05;;;;;;;19.68;77.19;95072.22;5113634;28;20200;-67
2023/09/21 07:52:17;;;;;;;16.10;12.00;;;;;;;19.71;76.74;95077.00;5096412;28;20325;-67
2023/09/21 07:54:45;;;;;;;15.98;11.60;;;;;;;19.73;76.18;95068.22;5096237;28;20228;-67
2023/09/21 07:57:16;;;;;;;16.73;12.32;;;;;;;19.73;75.72;95073.81;5096665;28;20189;-67
2023/09/21 07:59:44;;;;;;;12.75;11.25;;;;;;;19.73;74.80;95071.00;5096638;28;20208;-67
2023/09/21 08:02:16;;;;;;;15.82;10.93;;;;;;;19.74;75.35;95070.59;5097487;28;20192;-67
2023/09/21 08:04:47;;;;;;;12.55;10.30;;;;;;;19.75;74.82;95060.97;5096998;28;20562;-67
2023/09/21 08:07:15;;;;;;;15.77;10.80;;;;;;;19.75;73.75;95060.97;5096524;28;20283;-67
2023/09/21 08:09:43;;;;;;;13.02;10.55;;;;;;;19.78;73.51;95064.97;5096369;28;20193;-67
2023/09/21 08:12:12;;;;;;;10.98;8.35;;;;;;;19.79;73.03;95058.97;5112927;28;20228;-67
2023/09/21 08:14:40;;;;;;;16.83;9.50;;;;;;;19.87;72.83;95059.69;5095805;28;20199;-67
2023/09/21 08:17:10;;;;;;;21.85;9.02;;;;;;;19.88;72.82;95070.47;5113110;28;20206;-67
2023/09/21 08:19:40;;;;;;;14.45;8.50;;;;;;;19.94;72.71;95056.84;5096235;28;20199;-67
2023/09/21 08:22:12;;;;;;;19.23;7.75;;;;;;;19.99;72.04;95064.78;5095753;28;20220;-67
2023/09/21 08:24:41;;;;;;;11.30;8.73;;;;;;;20.00;71.50;95073.97;5095562;28;20281;-67
2023/09/21 08:27:09;;;;;;;11.00;8.50;;;;;;;19.98;71.39;95074.38;5112608;28;20295;-67
2023/09/21 08:29:38;;;;;;;13.27;7.88;;;;;;;19.98;70.90;95070.81;5095418;28;20262;-67
2023/09/21 08:32:06;;;;;;;11.75;8.32;;;;;;;19.97;70.93;95081.19;5095742;28;20196;-67
2023/09/21 08:34:35;;;;;;;10.45;8.73;;;;;;;19.98;70.43;95079.19;5096505;28;20188;-67
2023/09/21 08:37:02;;;;;;;11.32;8.93;;;;;;;19.95;69.58;95076.00;5095468;28;20211;-67
2023/09/21 08:39:32;;;;;;;9.55;8.10;;;;;;;19.94;69.48;95079.22;5095220;28;20207;-67
2023/09/21 08:42:03;;;;;;;12.13;8.23;;;;;;;19.92;69.23;95079.63;5095202;28;20242;-67
2023/09/21 08:44:30;;;;;;;11.55;7.68;;;;;;;19.94;69.79;95077.22;5095317;28;20288;-67
2023/09/21 08:47:03;;;;;;;11.20;7.75;;;;;;;19.92;70.11;95076.81;5095923;28;20275;-67
2023/09/21 08:49:32;;;;;;;11.43;7.47;;;;;;;19.94;70.22;95079.22;5095538;28;20220;-67
2023/09/21 08:52:02;;;;;;;8.10;7.30;;;;;;;19.94;70.03;95079.22;5095303;28;20208;-67
2023/09/21 08:54:29;;;;;;;9.10;7.40;;;;;;;19.95;69.69;95083.59;5095098;28;20228;-67
2023/09/21 08:57:01;;;;;;;9.15;7.13;;;;;;;19.96;69.92;95074.78;5112367;28;20197;-67
2023/09/21 08:59:29;;;;;;;11.00;7.45;;;;;;;20.00;69.78;95073.97;5095418;28;20223;-67
2023/09/21 09:01:58;;;;;;;8.38;7.00;;;;;;;20.03;69.95;95070.34;5112149;28;20250;-67
2023/09/21 09:04:28;;;;;;;10.80;7.88;;;;;;;20.05;70.10;95070.75;5094796;28;20203;-67
2023/09/21 09:06:57;;;;;;;7.38;6.38;;;;;;;20.07;70.19;95077.50;5095509;28;20224;-67
2023/09/21 09:09:26;;;;;;;8.55;7.32;;;;;;;20.12;70.77;95079.84;5096011;28;20218;-67
2023/09/21 09:11:55;;;;;;;9.25;7.40;;;;;;;20.15;70.58;95069.81;5094947;28;20192;-67
2023/09/21 09:14:25;;;;;;;9.27;7.35;;;;;;;20.17;70.22;95070.22;5095120;28;20242;-67
2023/09/21 09:16:53;;;;;;;9.98;6.60;;;;;;;20.18;69.99;95061.38;5094941;28;20596;-67
2023/09/21 09:19:21;;;;;;;11.20;8.02;;;;;;;20.20;69.92;95063.78;5095338;28;20220;-67
2023/09/21 09:21:52;;;;;;;10.90;7.50;;;;;;;20.23;69.88;95073.38;5094469;28;20693;-67
2023/09/21 09:24:22;;;;;;;9.00;8.10;;;;;;;20.24;69.29;95058.16;5094931;28;20196;-67
2023/09/21 09:26:51;;;;;;;10.60;7.95;;;;;;;20.22;68.45;95068.94;5094446;28;20629;-67
2023/09/21 09:29:22;;;;;;;11.57;7.95;;;;;;;20.23;68.76;95070.56;5094848;28;20247;-67
2023/09/21 09:31:51;;;;;;;12.05;8.00;;;;;;;20.25;68.62;95059.72;5095131;28;20203;-67
2023/09/21 09:34:19;;;;;;;12.95;8.73;;;;;;;20.26;68.85;95058.50;5111407;28;20208;-67
2023/09/21 09:36:49;;;;;;;12.05;8.50;;;;;;;20.26;69.27;95062.13;5094542;28;20210;-67
2023/09/21 09:39:18;;;;;;;10.48;8.57;;;;;;;20.24;69.00;95060.94;5094991;28;20623;-67
2023/09/21 09:41:49;;;;;;;11.85;8.85;;;;;;;20.22;69.83;95055.75;5095064;28;20185;-67
2023/09/21 09:44:21;;;;;;;11.13;8.80;;;;;;;20.21;71.38;95054.16;5095186;28;20184;-67
2023/09/21 09:46:53;;;;;;;11.60;8.05;;;;;;;20.19;71.17;95045.41;5094724;28;20291;-67
2023/09/21 09:49:23;;;;;;;9.85;8.75;;;;;;;20.21;72.10;95056.97;5077902;28;20220;-67
2023/09/21 09:51:52;;;;;;;12.77;9.10;;;;;;;20.27;74.04;95055.31;5094334;28;20291;-67
2023/09/21 09:54:21;;;;;;;12.60;9.63;;;;;;;20.35;74.04;95050.41;5094536;28;20280;-67
2023/09/21 09:56:51;;;;;;;13.32;9.23;;;;;;;20.39;72.98;95049.16;5094510;28;20188;-67
2023/09/21 09:59:20;;;;;;;11.98;8.95;;;;;;;20.44;72.10;95043.13;5094599;28;20196;-67
2023/09/21 10:01:49;;;;;;;13.18;8.35;;;;;;;20.52;72.21;95049.47;5094219;28;20215;-67
2023/09/21 10:04:19;;;;;;;9.07;8.20;;;;;;;20.60;72.25;95048.16;5094454;28;20207;-67
2023/09/21 10:06:48;;;;;;;11.35;8.85;;;;;;;20.65;72.28;95053.28;5094489;28;20200;-67
2023/09/21 10:09:18;;;;;;;9.15;7.78;;;;;;;20.72;71.54;95054.44;5094413;28;20232;-67
2023/09/21 10:11:49;;;;;;;11.52;7.78;;;;;;;20.85;70.88;95053.47;5093939;28;20231;-67
2023/09/21 10:14:17;;;;;;;8.23;7.30;;;;;;;21.09;69.54;95048.72;5094060;28;20200;-67
2023/09/21 10:16:55;;;;;;;8.02;7.05;;;;;;;21.48;68.13;95049.41;5093811;28;20246;-67
2023/09/21 10:19:29;;;;;;;12.70;8.45;;;;;;;21.84;66.83;95052.44;5094106;28;20212;-67
2023/09/21 10:21:59;;;;;;;10.50;7.32;;;;;;;22.13;65.36;95043.53;5111290;28;20192;-67
2023/09/21 10:24:29;;;;;;;10.00;6.95;;;;;;;22.36;64.77;95037.91;5094104;28;20534;-67
2023/09/21 10:27:01;;;;;;;10.18;7.90;;;;;;;22.59;64.08;95037.06;5094501;28;20224;-67
2023/09/21 10:29:35;;;;;;;7.30;6.30;;;;;;;22.77;58.67;95031.09;5093790;28;20277;-67
2023/09/21 10:32:06;;;;;;;8.75;6.43;;;;;;;22.92;59.33;95032.41;5094165;28;20555;-67
2023/09/21 10:34:34;;;;;;;7.78;6.32;;;;;;;23.02;59.57;95025.75;5093687;28;20287;-67
2023/09/21 10:37:05;;;;;;;7.93;6.38;;;;;;;23.14;60.02;95024.28;5094121;28;20199;-67
2023/09/21 10:40:16;;;;;;;8.55;6.65;;;;;;;23.30;58.93;95015.88;5093773;28;20249;-67
2023/09/21 10:42:44;;;;;;;7.45;6.13;;;;;;;23.48;57.51;95011.84;5093877;28;20206;-67
2023/09/21 10:45:15;;;;;;;7.63;6.60;;;;;;;23.56;57.56;95016.06;5093709;28;20621;-67
2023/09/21 10:47:51;;;;;;;9.65;6.20;;;;;;;23.65;57.27;95021.91;5093899;28;20193;-67
2023/09/21 10:50:22;;;;;;;6.70;6.10;;;;;;;23.74;56.44;95013.66;5093929;28;20212;-67
2023/09/21 10:52:52;;;;;;;6.90;5.97;;;;;;;23.81;56.41;95011.91;5110601;28;20199;-67
2023/09/21 10:55:21;;;;;;;6.63;5.70;;;;;;;23.87;55.26;95010.16;5094122;28;20192;-67
2023/09/21 10:57:52;;;;;;;7.47;6.70;;;;;;;23.95;55.81;94998.25;5095003;28;20188;-67
2023/09/21 11:00:21;;;;;;;6.65;6.07;;;;;;;24.02;55.42;94997.28;5093558;28;20219;-67
2023/09/21 11:02:50;;;;;;;8.57;6.05;;;;;;;24.09;55.30;94993.47;5093414;28;20235;-67
2023/09/21 11:05:21;;;;;;;8.93;6.43;;;;;;;24.19;54.38;94989.59;5094570;28;20193;-67
2023/09/21 11:07:51;;;;;;;8.32;6.82;;;;;;;24.18;55.26;94987.97;5097631;28;20200;-67
2023/09/21 11:10:20;;;;;;;8.85;6.95;;;;;;;24.05;54.47;94987.94;5096944;28;20228;-67
2023/09/21 11:12:48;;;;;;;8.48;6.35;;;;;;;23.90;55.35;94975.47;5096943;28;20200;-67
2023/09/21 11:15:17;;;;;;;7.60;6.30;;;;;;;23.90;56.11;94970.63;5098355;28;20254;-67
2023/09/21 11:17:45;;;;;;;7.10;6.47;;;;;;;24.00;55.28;94968.75;5097012;28;20533;-67
2023/09/21 11:20:17;;;;;;;7.18;6.43;;;;;;;24.03;55.29;94959.41;5097255;28;20195;-67
2023/09/21 11:22:49;;;;;;;8.02;7.00;;;;;;;24.07;54.22;94960.09;5097009;28;20293;-67
2023/09/21 11:25:20;;;;;;;9.90;6.95;;;;;;;24.14;54.48;94948.63;5098141;28;20246;-67
2023/09/21 11:27:48;;;;;;;7.30;6.60;;;;;;;24.23;54.55;94951.63;5098241;28;20209;-67
2023/09/21 11:30:16;;;;;;;6.90;6.20;;;;;;;24.43;53.30;94947.88;5113751;28;20246;-67
2023/09/21 11:32:46;;;;;;;7.32;6.50;;;;;;;24.44;53.07;94946.66;5117245;28;20214;-67
2023/09/21 11:35:16;;;;;;;7.88;6.82;;;;;;;24.45;52.73;94939.78;5100592;28;20217;-67